Arvada, WY (82831)

9:52 AM MDT on September 19, 2014 (GMT -0600)
Gillette-Campbell County | Change Station
CLOSE
Current Station
Airport
Location: Gillette,
Elevation: 4364 ft
Nearby Weather Stations

Elev 4364 ft 44.34 °N, 105.54 °W | Updated 59 minutes ago

Partly Cloudy
Partly Cloudy
64 °F
Feels Like 64 °F
N
13
Wind Variable Wind from West

Today
High -- | Low -- °F
--% Chance of Precip.
Yesterday
High -- | Low -- °F
Precip. -- in
6:48 AM 7:07 PM
Waning Crescent, 18% visible
Pressure 29.80 in
Visibility 10.0 miles
Clouds Scattered Clouds 10000 ft
Dew Point 52 °F
Humidity 65%
Rainfall 0.02 in
Snow Depth 0 in , 0 in , 0 in
UV 1 out of 12
Pollen 5.40 out of 12
Air Quality Not available.
Flu Activity Not available.
METAR KGCC 191453Z AUTO 26011KT 10SM SCT100 18/11 A2991 RMK AO2 SLP091 T01780111 51010

More Conditions Fewer Conditions

Pressure 29.80 in
Visibility 10.0 miles
Clouds Scattered Clouds 10000 ft
Dew Point 52 °F
Humidity 65%
Rainfall 0.02 in
Snow Depth 0 in , 0 in , 0 in
UV 1 out of 12
Pollen 5.40 out of 12
Air Quality Not available.
Flu Activity Not available.
METAR KGCC 191453Z AUTO 26011KT 10SM SCT100 18/11 A2991 RMK AO2 SLP091 T01780111 51010

More Conditions Fewer Conditions

10-Day Weather Forecast

Almanac

Astronomy

Sep. 19, 2014 Rise Set
Actual Time 6:48 AM MDT 7:07 PM MDT
Civil Twilight 6:18 AM MDT 7:36 PM MDT
Nautical Twilight 5:44 AM MDT 8:10 PM MDT
Astronomical Twilight 5:08 AM MDT 8:46 PM MDT
Moon 2:27 AM MDT 4:45 PM MDT
Length of Visible Light 13h 17m
Length of Day
12h 19m
Tomorrow will be 3m 5s shorter.
Waning Crescent, 18% of the Moon is Illuminated
Today
Waning Crescent
Sep 24
New
Oct 1
First Quarter
Oct 8
Full
Oct 15
Last Quarter

Today's Extremes

State Highs State Lows

Community

WunderPhotos

Upload Photos

1,754,637 photos uploaded!

WunderBlogs® & News

By Dr. Jeff Masters
Director of Meteorology, Weather Underground
By Kari Strenfel
Meteorologist, Weather Underground
By Christopher C. Burt
Weather Historian, Weather Underground
September 19, 2014
September 19, 2014
September 19, 2014

Nearby

Snow Depth

Station Depth Elevation
Beartooth Lake 0 in 9275 ft
Owl Creek 0 in 8975 ft
Sucker Creek 0 in 8880 ft
Grave Springs 0 in 8550 ft
Crow Creek 0 in 8330 ft

Earthquake Activity

City Distance Mag. Time & Date
No recent earthquake activity has been reported nearby.
Minimum magnitude displayed is 2.5.

Coastal Water Temperatures

Place Temperature
No Stations Reporting

Nearby Weather Stations